Flugplatz Stade

EDHS · Niedersachsen, Alemania

METAR pasados EDHS · Flugplatz Stade

A continuación puedes ver los METAR de los últimos días. Selecciona un año para ver los METAR más antiguos, desde el año 2007 en adelante.

22 de abril de 2024

Hora Código Tiempo Temp. Visibilidad Cielo nuboso Viento METAR/SPECI
15:20
V
9 °C 10 km+ - 340° 340° 8 kt METAR EDHI 221320Z 34008KT 310V040 9999 FEW039 09/M01 Q1024
14:50
V
8 °C 10 km+ - 010° 010° 6 kt METAR EDHI 221250Z 01006KT 330V090 CAVOK 08/M01 Q1024
14:20
V
7 °C 10 km+ - 020° 020° 10 kt METAR EDHI 221220Z 02010KT 9999 FEW045 07/M00 Q1024
13:50
V
8 °C 10 km+ - 280° 280° 8 kt METAR EDHI 221150Z 28008KT 240V330 9999 VCSH FEW045 08/M02 Q1024
13:20
V
8 °C 10 km+ - 240° 240° 6 kt METAR EDHI 221120Z 24006KT 200V290 9999 FEW047 08/M04 Q1024
12:50
V
7 °C 10 km+ - 260° 260° 3 kt METAR EDHI 221050Z 26003KT 190V360 9999 SCT047 07/M02 Q1025
12:20
V
8 °C 10 km+ - 250° 250° 3 kt METAR EDHI 221020Z 25003KT 170V310 9999 FEW045 08/M02 Q1025
11:50
V
7 °C 10 km+ - 260° 260° 5 kt METAR EDHI 220950Z 26005KT 230V310 CAVOK 07/M04 Q1025
11:20
V
6 °C 10 km+ - 240° 240° 7 kt METAR EDHI 220920Z 24007KT 200V300 CAVOK 06/M04 Q1025
10:50
V
6 °C 10 km+ - 250° 250° 9 kt METAR EDHI 220850Z 25009KT 220V280 CAVOK 06/M04 Q1025
10:20
V
5 °C 10 km+ - 250° 250° 7 kt METAR EDHI 220820Z 25007KT CAVOK 05/M05 Q1025
09:50
V
5 °C 10 km+ - 240° 240° 10 kt METAR EDHI 220750Z 24010KT 9999 FEW046 05/M04 Q1025
09:20
V
4 °C 10 km+ - 220° 220° 5 kt METAR EDHI 220720Z 22005KT 180V240 CAVOK 04/M03 Q1025
08:50
V
3 °C 10 km+ - 230° 230° 6 kt METAR EDHI 220650Z 23006KT CAVOK 03/M03 Q1026
08:20
V
3 °C 10 km+ - 200° 200° 5 kt METAR EDHI 220620Z 20005KT CAVOK 03/M02 Q1025
07:20
V
2 °C 10 km+ - 360° 360° 0 kt METAR EDHI 220520Z 00000KT CAVOK 02/M01 Q1026
06:50
V
2 °C 10 km+ - Var Var 2 kt METAR EDHI 220450Z VRB02KT CAVOK 02/M01 Q1026
06:20
V
1 °C 10 km+ - 160° 160° 3 kt METAR EDHI 220420Z 16003KT 110V200 CAVOK 01/M02 Q1026
05:20
V
2 °C 10 km+ 6.400 ft Var Var 1 kt METAR EDHI 220320Z AUTO VRB01KT 9999 // OVC064/// 02/M02 Q1026
04:50
V
1 °C 10 km+ 6.900 ft Var Var 2 kt METAR EDHI 220250Z AUTO VRB02KT 9999 // SCT061/// BKN069/// OVC088/// 01/M01 Q1026
04:20
V
2 °C 10 km+ 8.800 ft Var Var 2 kt METAR EDHI 220220Z AUTO VRB02KT 9999 // SCT074/// OVC088/// 02/M01 Q1026
03:50
V
1 °C 10 km+ 7.700 ft 160° 160° 3 kt METAR EDHI 220150Z AUTO 16003KT 9999 // BKN077/// OVC089/// 01/M01 Q1026
03:20
V
2 °C 10 km+ 7.500 ft 360° 360° 0 kt METAR EDHI 220120Z AUTO 00000KT 9999 // BKN075/// OVC087/// 02/M00 Q1026
02:50
V
3 °C 10 km+ 7.700 ft Var Var 2 kt METAR EDHI 220050Z AUTO VRB02KT 9999 // BKN077/// OVC087/// 03/M01 Q1026
02:20
V
3 °C 10 km+ 8.000 ft 110° 110° 2 kt METAR EDHI 220020Z AUTO 11002KT 9999 // OVC080/// 03/M00 Q1027
01:50
V
3 °C 10 km+ 7.800 ft Var Var 2 kt METAR EDHI 212350Z AUTO VRB02KT 9999 // OVC078/// 03/00 Q1027
01:20
V
4 °C 10 km+ 7.400 ft Var Var 1 kt METAR EDHI 212320Z AUTO VRB01KT 9999 // OVC074/// 04/00 Q1027
00:50
V
4 °C 10 km+ 7.200 ft 090° 090° 3 kt METAR EDHI 212250Z AUTO 09003KT 9999 // OVC072/// 04/00 Q1027
00:20
V
5 °C 10 km+ 7.200 ft 060° 060° 3 kt METAR EDHI 212220Z AUTO 06003KT 030V100 9999 // OVC072/// 05/00 Q1027

21 de abril de 2024

Hora Código Tiempo Temp. Visibilidad Cielo nuboso Viento METAR/SPECI
23:50
V
5 °C 10 km+ 7.000 ft 060° 060° 5 kt METAR EDHI 212150Z AUTO 06005KT 9999 // BKN070/// OVC120/// 05/00 Q1027
23:20
V
5 °C 10 km+ 13.000 ft 050° 050° 6 kt METAR EDHI 212120Z AUTO 05006KT 9999 // FEW067/// OVC130/// 05/M00 Q1027
22:50
V
4 °C 10 km+ 15.000 ft 060° 060° 6 kt METAR EDHI 212050Z AUTO 06006KT 9999 // FEW075/// BKN150/// 04/00 Q1027
22:20
V
5 °C 10 km+ 7.700 ft 050° 050° 7 kt METAR EDHI 212020Z AUTO 05007KT 9999 // BKN077/// 05/01 Q1027
21:50
V
5 °C 10 km+ 7.500 ft 040° 040° 7 kt METAR EDHI 211950Z AUTO 04007KT 9999 // BKN075/// BKN200/// 05/00 Q1027
21:20
V
5 °C 10 km+ - 050° 050° 8 kt METAR EDHI 211920Z AUTO 05008KT 9999 // FEW074/// SCT140/// 05/01 Q1027
20:50
V
6 °C 10 km+ - 040° 040° 9 kt METAR EDHI 211850Z AUTO 04009KT 9999 // FEW140/// 06/01 Q1026
20:20
V
6 °C 10 km+ - 050° 050° 9 kt METAR EDHI 211820Z AUTO 05009KT 9999 // SCT086/// 06/01 Q1026
19:50
V
6 °C 10 km+ - 050° 050° 9 kt METAR EDHI 211750Z AUTO 05009KT 9999 // FEW087/// 06/00 Q1026
19:20
V
6 °C 10 km+ - 040° 040° 9 kt METAR EDHI 211720Z AUTO 04009KT 9999 // FEW085/// 06/01 Q1026
18:50
V
6 °C 10 km+ 9.000 ft 050° 050° 9 kt METAR EDHI 211650Z AUTO 05009KT 9999 // FEW072/// BKN090/// OVC120/// 06/M00 Q1026
18:20
V
7 °C 10 km+ 4.700 ft 050° 050° 7 kt METAR EDHI 211620Z AUTO 05007KT 020V080 9999 // SCT039/// OVC047/// 07/M00 Q1026
17:50
V
7 °C 10 km+ 7.600 ft 020° 020° 16 kt METAR EDHI 211550Z AUTO 02016KT 9999 // SCT049/// BKN076/// OVC089/// 07/00 Q1026
17:20
V
7 °C 10 km+ 6.900 ft 040° 040° 17 kt METAR EDHI 211520Z AUTO 04017KT 360V060 9999 // OVC069/// 07/01 Q1026
16:50
V
8 °C 10 km+ 8.000 ft 010° 010° 15 kt METAR EDHI 211450Z AUTO 01015KT 9999 // FEW054/// OVC080/// 08/00 Q1025
16:20
V
9 °C 10 km+ 5.600 ft 360° 360° 11 kt METAR EDHI 211420Z AUTO 36011KT 330V040 9999 // BKN056/// BKN065/// OVC078/// 09/M02 Q1025
15:50
V
9 °C 10 km+ 6.300 ft 040° 040° 8 kt METAR EDHI 211350Z AUTO 04008KT 010V070 9999 // OVC063/// 09/M03 Q1025
15:20
V
10 °C 10 km+ 7.200 ft 040° 040° 3 kt METAR EDHI 211320Z AUTO 04003KT 340V090 9999 // FEW062/// BKN072/// OVC082/// 10/M03 Q1025
14:50
V
9 °C 10 km+ 7.700 ft 040° 040° 8 kt METAR EDHI 211250Z AUTO 04008KT 9999 // FEW065/// OVC077/// 09/M03 Q1025
14:20
V
9 °C 10 km+ 6.400 ft 070° 070° 8 kt METAR EDHI 211220Z AUTO 07008KT 020V110 9999 // BKN064/// BKN073/// 09/M04 Q1025
13:50
V
9 °C 10 km+ 6.400 ft 090° 090° 9 kt METAR EDHI 211150Z AUTO 09009KT 030V130 9999 // BKN064/// BKN073/// 09/M05 Q1025
13:20
V
10 °C 10 km+ - 090° 090° 11 kt METAR EDHI 211120Z AUTO 09011KT 060V130 9999 // FEW067/// 10/M04 Q1025
12:50
V
9 °C 10 km+ - 070° 070° 9 kt METAR EDHI 211050Z AUTO 07009KT 040V110 9999 // FEW063/// 09/M04 Q1025
12:20
V
8 °C 10 km+ - 060° 060° 13 kt METAR EDHI 211020Z AUTO 06013KT 9999 // FEW056/// 08/M05 Q1025
11:50
V
8 °C 10 km+ - 070° 070° 10 kt METAR EDHI 210950Z AUTO 07010KT 020V130 9999 // SCT055/// 08/M04 Q1025
11:20
V
9 °C 10 km+ - 070° 070° 11 kt METAR EDHI 210920Z AUTO 07011KT 040V110 9999 // SCT053/// 09/M02 Q1025
10:50
V
7 °C 10 km+ - 060° 060° 11 kt METAR EDHI 210850Z AUTO 06011KT 040V100 9999 // FEW051/// 07/M04 Q1025
10:20
V
7 °C 10 km+ - 060° 060° 10 kt METAR EDHI 210820Z AUTO 06010KT 9999 // FEW049/// 07/M02 Q1025
09:50
V
7 °C 10 km+ - 070° 070° 8 kt METAR EDHI 210750Z AUTO 07008KT 030V100 9999 // NCD 07/M00 Q1025
09:20
V
7 °C 10 km+ - 070° 070° 10 kt METAR EDHI 210720Z AUTO 07010KT 9999 // NCD 07/00 Q1024
08:50
V
6 °C 10 km+ - 050° 050° 9 kt METAR EDHI 210650Z AUTO 05009KT 9999 // NCD 06/01 Q1024
08:20
V
5 °C 10 km+ - 050° 050° 7 kt METAR EDHI 210620Z AUTO 05007KT 9999 // FEW071/// 05/02 Q1024
07:50
V
4 °C 10 km+ 7.600 ft 050° 050° 7 kt METAR EDHI 210550Z AUTO 05007KT 9999 // FEW066/// BKN076/// 04/02 Q1023
07:20
V
4 °C 10 km+ 8.000 ft 050° 050° 5 kt METAR EDHI 210520Z AUTO 05005KT 9999 // SCT066/// BKN080/// 04/02 Q1023
06:50
V
3 °C 10 km+ 7.900 ft 060° 060° 6 kt METAR EDHI 210450Z AUTO 06006KT 9999 // BKN079/// 03/01 Q1022
06:20
V
3 °C 10 km+ 8.700 ft 060° 060° 7 kt METAR EDHI 210420Z AUTO 06007KT 9999 // BKN087/// 03/01 Q1022
05:50
V
3 °C 10 km+ - 050° 050° 6 kt METAR EDHI 210350Z AUTO 05006KT 9999 // FEW078/// 03/02 Q1022
05:20
V
2 °C 10 km+ - 060° 060° 6 kt METAR EDHI 210320Z AUTO 06006KT 9999 // NCD 02/02 Q1021
04:50
V
3 °C 10 km+ - 050° 050° 9 kt METAR EDHI 210250Z AUTO 05009KT 9999 // NCD 03/02 Q1021
04:20
V
3 °C 10 km+ - 050° 050° 8 kt METAR EDHI 210220Z AUTO 05008KT 9999 // NCD 03/02 Q1021
03:50
V
3 °C 10 km+ - 050° 050° 7 kt METAR EDHI 210150Z AUTO 05007KT 9999 // NCD 03/02 Q1020
03:20
V
3 °C 10 km+ - 050° 050° 7 kt METAR EDHI 210120Z AUTO 05007KT 9999 // FEW006/// 03/02 Q1020
02:50
V
4 °C 10 km+ 6.000 ft 030° 030° 8 kt METAR EDHI 210050Z AUTO 03008KT 9999 // FEW040/// OVC060/// 04/03 Q1020
02:20
V
4 °C 10 km+ 4.700 ft 010° 010° 6 kt METAR EDHI 210020Z AUTO 01006KT 9999 // SCT028/// BKN047/// OVC065/// 04/03 Q1020
01:50
M
4 °C 10 km+ 1.700 ft 030° 030° 8 kt METAR EDHI 202350Z AUTO 03008KT 9999 // BKN017/// BKN022/// OVC040/// 04/02 Q1020
01:20
M
4 °C 10 km+ 1.800 ft 010° 010° 9 kt METAR EDHI 202320Z AUTO 01009KT 9999 // BKN018/// OVC027/// 04/02 Q1020
00:50
I
4 °C 3,6 km 1.500 ft Var Var 4 kt METAR EDHI 202250Z AUTO VRB04KT 3600 // FEW012/// BKN015/// OVC020/// 04/02 Q1020
00:20
M
5 °C 10 km+ 2.300 ft 010° 010° 6 kt METAR EDHI 202220Z AUTO 01006KT 330V030 9999 // FEW020/// BKN023/// OVC032/// 05/03 Q1019

20 de abril de 2024

Hora Código Tiempo Temp. Visibilidad Cielo nuboso Viento METAR/SPECI
23:50
V
6 °C 10 km+ 5.100 ft 360° 360° 0 kt METAR EDHI 202150Z AUTO 00000KT 9999 // SCT033/// BKN051/// OVC060/// 06/03 Q1019
23:20
V
6 °C 10 km+ 3.800 ft 360° 360° 0 kt METAR EDHI 202120Z AUTO 00000KT 9999 // SCT031/// BKN038/// OVC047/// 06/03 Q1019
22:50
V
5 °C 10 km+ 7.900 ft Var Var 2 kt METAR EDHI 202050Z AUTO VRB02KT 9999 // FEW040/// OVC079/// 05/03 Q1019
22:20
V
6 °C 10 km+ 7.300 ft Var Var 2 kt METAR EDHI 202020Z AUTO VRB02KT 9999 // OVC073/// 06/02 Q1019
21:50
V
6 °C 10 km+ 6.900 ft Var Var 2 kt METAR EDHI 201950Z AUTO VRB02KT 9999 // BKN069/// OVC079/// 06/03 Q1019
21:20
V
6 °C 10 km+ 7.000 ft Var Var 2 kt METAR EDHI 201920Z AUTO VRB02KT 9999 // OVC070/// 06/02 Q1019
20:50
V
6 °C 10 km+ 7.900 ft 090° 090° 5 kt METAR EDHI 201850Z AUTO 09005KT 050V140 9999 // FEW034/// SCT059/// OVC079/// 06/02 Q1019
20:20
V
7 °C 10 km+ 5.000 ft 340° 340° 3 kt METAR EDHI 201820Z AUTO 34003KT 300V020 9999 // SCT029/// SCT044/// OVC050/// 07/01 Q1019
19:50
V
7 °C 10 km+ 5.400 ft 280° 280° 7 kt METAR EDHI 201750Z AUTO 28007KT 9999 // SCT037/// BKN054/// OVC064/// 07/02 Q1018
19:20
V
8 °C 10 km+ 6.500 ft 250° 250° 6 kt METAR EDHI 201720Z AUTO 25006KT 9999 // FEW039/// SCT046/// OVC065/// 08/01 Q1018
18:50
V
8 °C 10 km+ 4.500 ft 270° 270° 7 kt METAR EDHI 201650Z AUTO 27007KT 9999 // BKN045/// BKN054/// BKN140/// 08/02 Q1018
18:20
V
9 °C 10 km+ 8.700 ft 240° 240° 3 kt METAR EDHI 201620Z AUTO 24003KT 180V270 9999 // FEW046/// BKN087/// BKN150/// 09/M01 Q1018
17:50
V
9 °C 10 km+ 8.500 ft Var Var 2 kt METAR EDHI 201550Z AUTO VRB02KT 9999 // FEW042/// BKN085/// 09/00 Q1018
17:20
V
10 °C 10 km+ 8.800 ft Var Var 1 kt METAR EDHI 201520Z AUTO VRB01KT 9999 // OVC088/// 10/02 Q1018
16:50
V
8 °C 10 km+ 8.900 ft Var Var 4 kt METAR EDHI 201450Z AUTO VRB04KT 9999 // FEW041/// SCT066/// BKN089/// 08/01 Q1018
16:20
V
8 °C 10 km+ 4.100 ft 040° 040° 7 kt METAR EDHI 201420Z AUTO 04007KT 350V060 9999 // BKN041/// BKN050/// OVC090/// 08/01 Q1019
15:50
V
9 °C 10 km+ 8.600 ft Var Var 4 kt METAR EDHI 201350Z AUTO VRB04KT 9999 // FEW044/// BKN086/// 09/00 Q1019
15:20
V
8 °C 10 km+ 8.400 ft 030° 030° 5 kt METAR EDHI 201320Z AUTO 03005KT 340V070 9999 // FEW051/// SCT066/// BKN084/// 08/01 Q1019
14:50
V
7 °C 10 km+ 6.500 ft 020° 020° 6 kt METAR EDHI 201250Z AUTO 02006KT 9999 // SCT042/// SCT053/// OVC065/// 07/01 Q1019
14:20
V
6 °C 10 km+ 4.200 ft 020° 020° 8 kt METAR EDHI 201220Z AUTO 02008KT 9999 // OVC042/// 06/01 Q1018
13:50
V
7 °C 10 km+ 3.900 ft 040° 040° 10 kt METAR EDHI 201150Z AUTO 04010KT 9999 // FEW029/// BKN039/// BKN054/// 07/01 Q1018
13:20
V
9 °C 10 km+ 5.900 ft 310° 310° 8 kt METAR EDHI 201120Z AUTO 31008KT 270V330 9999 // SCT023/// BKN059/// BKN090/// 09/01 Q1018
12:50
V
8 °C 10 km+ - 330° 330° 7 kt METAR EDHI 201050Z 33007KT 9999 SCT026 08/01 Q1018
12:20
V
8 °C 10 km+ - 310° 310° 8 kt METAR EDHI 201020Z 31008KT 280V340 9999 SCT025 08/02 Q1017
11:50
M
7 °C 10 km+ 2.900 ft 300° 300° 8 kt METAR EDHI 200950Z 30008KT 9999 SCT023 BKN029 07/03 Q1017
11:20
V
7 °C 10 km+ - 300° 300° 7 kt METAR EDHI 200920Z 30007KT 280V340 9999 FEW021 SCT033 07/02 Q1017
10:50
V
7 °C 10 km+ - 300° 300° 9 kt METAR EDHI 200850Z 30009KT 9999 FEW017 SCT025 07/03 Q1017
10:20
V
7 °C 10 km+ - 310° 310° 6 kt METAR EDHI 200820Z 31006KT 270V340 CAVOK 07/03 Q1017
09:50
V
6 °C 10 km+ - 320° 320° 5 kt METAR EDHI 200750Z 32005KT 270V340 CAVOK 06/03 Q1016
09:20
V
5 °C 10 km+ - 340° 340° 6 kt METAR EDHI 200720Z 34006KT 290V020 CAVOK 05/02 Q1016
08:50
V
5 °C 10 km+ 13.000 ft 330° 330° 5 kt METAR EDHI 200650Z AUTO 33005KT 300V360 9999 // BKN130/// 05/02 Q1015
08:20
V
5 °C 10 km+ 12.000 ft 330° 330° 5 kt METAR EDHI 200620Z AUTO 33005KT 300V010 9999 // BKN120/// 05/02 Q1015
07:50
V
4 °C 10 km+ - 330° 330° 7 kt METAR EDHI 200550Z AUTO 33007KT 300V360 9999 // FEW017/// 04/01 Q1015
Cambiar esta información